sensor_id;sensor_type;location;lat;lon;timestamp;P1;durP1;ratioP1;P2;durP2;ratioP2
57615;SDS011;43816;52.054;-9.494;2023-02-01T00:00:00;5.47;;;3.17;;
57615;SDS011;43816;52.054;-9.494;2023-02-01T00:00:10;5.20;;;3.20;;
57615;SDS011;43816;52.054;-9.494;2023-02-01T00:00:21;5.10;;;3.13;;
57615;SDS011;43816;52.054;-9.494;2023-02-01T00:00:32;4.50;;;3.00;;
57615;SDS011;43816;52.054;-9.494;2023-02-01T00:00:42;4.27;;;3.00;;
57615;SDS011;43816;52.054;-9.494;2023-02-01T00:00:52;4.28;;;2.97;;
57615;SDS011;43816;52.054;-9.494;2023-02-01T00:01:06;4.17;;;2.90;;
57615;SDS011;43816;52.054;-9.494;2023-02-01T00:01:17;4.35;;;3.03;;
57615;SDS011;43816;52.054;-9.494;2023-02-01T00:01:27;4.40;;;3.10;;
57615;SDS011;43816;52.054;-9.494;2023-02-01T00:01:38;4.30;;;3.20;;
57615;SDS011;43816;52.054;-9.494;2023-02-01T00:01:48;4.40;;;3.15;;
57615;SDS011;43816;52.054;-9.494;2023-02-01T00:01:58;4.13;;;2.97;;
57615;SDS011;43816;52.054;-9.494;2023-02-01T00:02:08;4.57;;;3.13;;
57615;SDS011;43816;52.054;-9.494;2023-02-01T00:02:19;4.55;;;3.10;;
57615;SDS011;43816;52.054;-9.494;2023-02-01T00:02:29;4.63;;;3.17;;
57615;SDS011;43816;52.054;-9.494;2023-02-01T00:02:39;4.50;;;3.00;;
57615;SDS011;43816;52.054;-9.494;2023-02-01T00:02:50;4.68;;;3.00;;
57615;SDS011;43816;52.054;-9.494;2023-02-01T00:03:00;4.97;;;3.10;;
57615;SDS011;43816;52.054;-9.494;2023-02-01T00:03:11;5.20;;;3.20;;
57615;SDS011;43816;52.054;-9.494;2023-02-01T00:03:21;5.20;;;3.33;;
57615;SDS011;43816;52.054;-9.494;2023-02-01T00:03:31;5.30;;;3.40;;
57615;SDS011;43816;52.054;-9.494;2023-02-01T00:03:42;5.18;;;3.38;;
57615;SDS011;43816;52.054;-9.494;2023-02-01T00:03:52;4.93;;;3.30;;
57615;SDS011;43816;52.054;-9.494;2023-02-01T00:04:02;4.50;;;3.28;;
57615;SDS011;43816;52.054;-9.494;2023-02-01T00:04:13;4.23;;;2.93;;
57615;SDS011;43816;52.054;-9.494;2023-02-01T00:04:23;4.20;;;2.90;;
57615;SDS011;43816;52.054;-9.494;2023-02-01T00:04:33;4.57;;;2.80;;
57615;SDS011;43816;52.054;-9.494;2023-02-01T00:04:44;4.93;;;2.97;;
57615;SDS011;43816;52.054;-9.494;2023-02-01T00:04:54;5.00;;;3.00;;
57615;SDS011;43816;52.054;-9.494;2023-02-01T00:05:05;5.88;;;3.15;;
57615;SDS011;43816;52.054;-9.494;2023-02-01T00:05:16;5.75;;;3.22;;
57615;SDS011;43816;52.054;-9.494;2023-02-01T00:05:26;5.67;;;3.30;;
57615;SDS011;43816;52.054;-9.494;2023-02-01T00:05:36;4.85;;;3.28;;
57615;SDS011;43816;52.054;-9.494;2023-02-01T00:05:56;4.17;;;3.03;;
57615;SDS011;43816;52.054;-9.494;2023-02-01T00:06:10;4.35;;;3.00;;
57615;SDS011;43816;52.054;-9.494;2023-02-01T00:06:20;4.30;;;2.90;;
57615;SDS011;43816;52.054;-9.494;2023-02-01T00:06:30;4.33;;;2.90;;
57615;SDS011;43816;52.054;-9.494;2023-02-01T00:06:40;4.40;;;3.00;;
57615;SDS011;43816;52.054;-9.494;2023-02-01T00:06:51;4.95;;;3.20;;
57615;SDS011;43816;52.054;-9.494;2023-02-01T00:07:01;4.53;;;3.03;;
57615;SDS011;43816;52.054;-9.494;2023-02-01T00:07:12;4.83;;;3.07;;
57615;SDS011;43816;52.054;-9.494;2023-02-01T00:07:22;4.50;;;2.97;;
57615;SDS011;43816;52.054;-9.494;2023-02-01T00:07:32;4.77;;;3.07;;
57615;SDS011;43816;52.054;-9.494;2023-02-01T00:07:42;4.47;;;3.00;;
57615;SDS011;43816;52.054;-9.494;2023-02-01T00:07:57;5.25;;;3.15;;
57615;SDS011;43816;52.054;-9.494;2023-02-01T00:08:08;5.50;;;3.10;;
57615;SDS011;43816;52.054;-9.494;2023-02-01T00:08:18;5.53;;;3.08;;
57615;SDS011;43816;52.054;-9.494;2023-02-01T00:08:29;5.00;;;2.95;;
57615;SDS011;43816;52.054;-9.494;2023-02-01T00:08:39;4.67;;;2.80;;
57615;SDS011;43816;52.054;-9.494;2023-02-01T00:08:52;4.78;;;2.80;;
57615;SDS011;43816;52.054;-9.494;2023-02-01T00:09:03;5.03;;;2.80;;
57615;SDS011;43816;52.054;-9.494;2023-02-01T00:09:13;5.18;;;2.90;;
57615;SDS011;43816;52.054;-9.494;2023-02-01T00:09:24;4.50;;;2.93;;
57615;SDS011;43816;52.054;-9.494;2023-02-01T00:09:34;4.70;;;2.80;;
57615;SDS011;43816;52.054;-9.494;2023-02-01T00:09:44;4.55;;;2.78;;
57615;SDS011;43816;52.054;-9.494;2023-02-01T00:09:55;4.63;;;2.70;;
57615;SDS011;43816;52.054;-9.494;2023-02-01T00:10:05;4.17;;;2.70;;
57615;SDS011;43816;52.054;-9.494;2023-02-01T00:10:17;4.45;;;2.80;;
57615;SDS011;43816;52.054;-9.494;2023-02-01T00:10:27;4.72;;;3.17;;
57615;SDS011;43816;52.054;-9.494;2023-02-01T00:10:38;4.63;;;3.30;;
57615;SDS011;43816;52.054;-9.494;2023-02-01T00:10:48;4.60;;;3.30;;
57615;SDS011;43816;52.054;-9.494;2023-02-01T00:11:02;4.80;;;3.13;;
57615;SDS011;43816;52.054;-9.494;2023-02-01T00:11:17;4.85;;;3.00;;
57615;SDS011;43816;52.054;-9.494;2023-02-01T00:11:27;4.50;;;3.00;;
57615;SDS011;43816;52.054;-9.494;2023-02-01T00:11:37;4.83;;;2.97;;
57615;SDS011;43816;52.054;-9.494;2023-02-01T00:11:48;4.83;;;2.90;;
57615;SDS011;43816;52.054;-9.494;2023-02-01T00:11:58;4.45;;;2.72;;
57615;SDS011;43816;52.054;-9.494;2023-02-01T00:12:08;4.37;;;2.97;;
57615;SDS011;43816;52.054;-9.494;2023-02-01T00:12:18;4.80;;;3.10;;
57615;SDS011;43816;52.054;-9.494;2023-02-01T00:12:29;5.50;;;3.20;;
57615;SDS011;43816;52.054;-9.494;2023-02-01T00:12:40;5.15;;;3.00;;
57615;SDS011;43816;52.054;-9.494;2023-02-01T00:12:50;4.53;;;2.90;;
57615;SDS011;43816;52.054;-9.494;2023-02-01T00:13:00;4.57;;;3.00;;
57615;SDS011;43816;52.054;-9.494;2023-02-01T00:13:11;4.83;;;3.20;;
57615;SDS011;43816;52.054;-9.494;2023-02-01T00:13:21;5.47;;;3.30;;
57615;SDS011;43816;52.054;-9.494;2023-02-01T00:13:32;5.47;;;3.33;;
57615;SDS011;43816;52.054;-9.494;2023-02-01T00:13:44;5.78;;;3.22;;
57615;SDS011;43816;52.054;-9.494;2023-02-01T00:13:54;5.68;;;3.15;;
57615;SDS011;43816;52.054;-9.494;2023-02-01T00:14:05;4.93;;;3.00;;
57615;SDS011;43816;52.054;-9.494;2023-02-01T00:14:16;4.90;;;3.00;;
57615;SDS011;43816;52.054;-9.494;2023-02-01T00:14:26;4.10;;;2.80;;
57615;SDS011;43816;52.054;-9.494;2023-02-01T00:14:36;4.07;;;2.80;;
57615;SDS011;43816;52.054;-9.494;2023-02-01T00:14:47;4.07;;;2.87;;
57615;SDS011;43816;52.054;-9.494;2023-02-01T00:14:57;4.70;;;3.00;;
57615;SDS011;43816;52.054;-9.494;2023-02-01T00:15:07;4.60;;;3.10;;
57615;SDS011;43816;52.054;-9.494;2023-02-01T00:15:18;4.03;;;2.90;;
57615;SDS011;43816;52.054;-9.494;2023-02-01T00:15:28;4.18;;;2.90;;
57615;SDS011;43816;52.054;-9.494;2023-02-01T00:15:39;4.53;;;3.10;;
57615;SDS011;43816;52.054;-9.494;2023-02-01T00:15:49;4.60;;;3.13;;
57615;SDS011;43816;52.054;-9.494;2023-02-01T00:16:05;4.13;;;3.10;;
57615;SDS011;43816;52.054;-9.494;2023-02-01T00:16:19;3.95;;;3.00;;
57615;SDS011;43816;52.054;-9.494;2023-02-01T00:16:31;4.22;;;2.85;;
57615;SDS011;43816;52.054;-9.494;2023-02-01T00:16:42;4.70;;;2.95;;
57615;SDS011;43816;52.054;-9.494;2023-02-01T00:16:52;4.75;;;2.95;;
57615;SDS011;43816;52.054;-9.494;2023-02-01T00:17:02;5.43;;;3.10;;
57615;SDS011;43816;52.054;-9.494;2023-02-01T00:17:13;4.90;;;3.10;;
57615;SDS011;43816;52.054;-9.494;2023-02-01T00:17:23;4.63;;;3.10;;
57615;SDS011;43816;52.054;-9.494;2023-02-01T00:17:34;3.87;;;3.10;;
57615;SDS011;43816;52.054;-9.494;2023-02-01T00:17:44;4.55;;;3.00;;
57615;SDS011;43816;52.054;-9.494;2023-02-01T00:17:54;4.77;;;2.93;;
57615;SDS011;43816;52.054;-9.494;2023-02-01T00:18:05;4.60;;;2.92;;
57615;SDS011;43816;52.054;-9.494;2023-02-01T00:18:15;4.60;;;3.10;;
57615;SDS011;43816;52.054;-9.494;2023-02-01T00:18:25;4.60;;;3.13;;
57615;SDS011;43816;52.054;-9.494;2023-02-01T00:18:36;4.30;;;3.00;;
57615;SDS011;43816;52.054;-9.494;2023-02-01T00:18:47;4.40;;;2.97;;
57615;SDS011;43816;52.054;-9.494;2023-02-01T00:19:02;4.43;;;2.90;;
57615;SDS011;43816;52.054;-9.494;2023-02-01T00:19:15;4.47;;;2.90;;
57615;SDS011;43816;52.054;-9.494;2023-02-01T00:19:25;4.80;;;3.00;;
57615;SDS011;43816;52.054;-9.494;2023-02-01T00:19:35;4.43;;;3.05;;
57615;SDS011;43816;52.054;-9.494;2023-02-01T00:19:46;4.83;;;3.10;;
57615;SDS011;43816;52.054;-9.494;2023-02-01T00:19:56;4.60;;;3.07;;
57615;SDS011;43816;52.054;-9.494;2023-02-01T00:20:06;5.20;;;3.07;;
57615;SDS011;43816;52.054;-9.494;2023-02-01T00:20:17;5.18;;;2.97;;
57615;SDS011;43816;52.054;-9.494;2023-02-01T00:20:28;5.33;;;3.20;;
57615;SDS011;43816;52.054;-9.494;2023-02-01T00:20:38;5.07;;;3.40;;
57615;SDS011;43816;52.054;-9.494;2023-02-01T00:20:48;4.90;;;3.23;;
57615;SDS011;43816;52.054;-9.494;2023-02-01T00:20:58;4.70;;;3.07;;
57615;SDS011;43816;52.054;-9.494;2023-02-01T00:21:16;4.70;;;2.83;;
57615;SDS011;43816;52.054;-9.494;2023-02-01T00:21:28;4.13;;;2.60;;
57615;SDS011;43816;52.054;-9.494;2023-02-01T00:21:40;4.30;;;2.70;;
57615;SDS011;43816;52.054;-9.494;2023-02-01T00:21:50;4.65;;;2.90;;
57615;SDS011;43816;52.054;-9.494;2023-02-01T00:22:00;5.27;;;2.90;;
57615;SDS011;43816;52.054;-9.494;2023-02-01T00:22:11;4.73;;;2.70;;
57615;SDS011;43816;52.054;-9.494;2023-02-01T00:22:21;4.20;;;2.60;;
57615;SDS011;43816;52.054;-9.494;2023-02-01T00:22:31;3.90;;;2.80;;
57615;SDS011;43816;52.054;-9.494;2023-02-01T00:22:42;4.10;;;2.90;;
57615;SDS011;43816;52.054;-9.494;2023-02-01T00:22:52;4.10;;;3.00;;
57615;SDS011;43816;52.054;-9.494;2023-02-01T00:23:02;3.67;;;2.70;;
57615;SDS011;43816;52.054;-9.494;2023-02-01T00:23:12;3.80;;;2.77;;
57615;SDS011;43816;52.054;-9.494;2023-02-01T00:23:23;4.00;;;2.70;;
57615;SDS011;43816;52.054;-9.494;2023-02-01T00:23:34;4.43;;;2.90;;
57615;SDS011;43816;52.054;-9.494;2023-02-01T00:23:45;4.30;;;2.80;;
57615;SDS011;43816;52.054;-9.494;2023-02-01T00:23:56;4.32;;;2.92;;
57615;SDS011;43816;52.054;-9.494;2023-02-01T00:24:08;4.47;;;2.97;;
57615;SDS011;43816;52.054;-9.494;2023-02-01T00:24:19;4.68;;;2.97;;
57615;SDS011;43816;52.054;-9.494;2023-02-01T00:24:30;4.40;;;2.78;;
57615;SDS011;43816;52.054;-9.494;2023-02-01T00:24:40;4.67;;;2.80;;
57615;SDS011;43816;52.054;-9.494;2023-02-01T00:24:50;4.23;;;2.83;;
57615;SDS011;43816;52.054;-9.494;2023-02-01T00:25:00;4.47;;;3.00;;
57615;SDS011;43816;52.054;-9.494;2023-02-01T00:25:11;3.90;;;2.90;;
57615;SDS011;43816;52.054;-9.494;2023-02-01T00:25:21;4.10;;;2.90;;
57615;SDS011;43816;52.054;-9.494;2023-02-01T00:25:31;4.30;;;2.80;;
57615;SDS011;43816;52.054;-9.494;2023-02-01T00:25:42;4.53;;;2.80;;
57615;SDS011;43816;52.054;-9.494;2023-02-01T00:25:52;5.00;;;2.80;;
57615;SDS011;43816;52.054;-9.494;2023-02-01T00:26:03;4.88;;;2.90;;
57615;SDS011;43816;52.054;-9.494;2023-02-01T00:26:52;3.90;;;2.80;;
57615;SDS011;43816;52.054;-9.494;2023-02-01T00:26:57;4.57;;;2.75;;
57615;SDS011;43816;52.054;-9.494;2023-02-01T00:27:03;3.97;;;2.77;;
57615;SDS011;43816;52.054;-9.494;2023-02-01T00:27:13;4.38;;;2.78;;
57615;SDS011;43816;52.054;-9.494;2023-02-01T00:27:23;4.53;;;2.77;;
57615;SDS011;43816;52.054;-9.494;2023-02-01T00:27:34;4.20;;;2.73;;
57615;SDS011;43816;52.054;-9.494;2023-02-01T00:27:48;3.55;;;2.70;;
57615;SDS011;43816;52.054;-9.494;2023-02-01T00:27:59;3.30;;;2.70;;
57615;SDS011;43816;52.054;-9.494;2023-02-01T00:28:09;3.38;;;2.67;;
57615;SDS011;43816;52.054;-9.494;2023-02-01T00:28:19;3.67;;;2.70;;
57615;SDS011;43816;52.054;-9.494;2023-02-01T00:28:29;3.47;;;2.70;;
57615;SDS011;43816;52.054;-9.494;2023-02-01T00:28:40;3.85;;;2.83;;
57615;SDS011;43816;52.054;-9.494;2023-02-01T00:28:50;3.50;;;2.60;;
57615;SDS011;43816;52.054;-9.494;2023-02-01T00:29:01;3.87;;;2.70;;
57615;SDS011;43816;52.054;-9.494;2023-02-01T00:29:15;3.92;;;2.58;;
57615;SDS011;43816;52.054;-9.494;2023-02-01T00:29:27;4.25;;;2.50;;
57615;SDS011;43816;52.054;-9.494;2023-02-01T00:29:37;4.10;;;2.40;;
57615;SDS011;43816;52.054;-9.494;2023-02-01T00:29:47;4.00;;;2.40;;
57615;SDS011;43816;52.054;-9.494;2023-02-01T00:29:58;3.53;;;2.42;;
57615;SDS011;43816;52.054;-9.494;2023-02-01T00:30:08;3.53;;;2.50;;
57615;SDS011;43816;52.054;-9.494;2023-02-01T00:30:19;3.55;;;2.53;;
57615;SDS011;43816;52.054;-9.494;2023-02-01T00:30:29;3.80;;;2.67;;
57615;SDS011;43816;52.054;-9.494;2023-02-01T00:30:40;3.30;;;2.50;;
57615;SDS011;43816;52.054;-9.494;2023-02-01T00:30:56;3.70;;;2.57;;
57615;SDS011;43816;52.054;-9.494;2023-02-01T00:31:08;4.13;;;2.50;;
57615;SDS011;43816;52.054;-9.494;2023-02-01T00:31:18;3.83;;;2.60;;
57615;SDS011;43816;52.054;-9.494;2023-02-01T00:31:28;3.80;;;2.67;;
57615;SDS011;43816;52.054;-9.494;2023-02-01T00:31:39;3.63;;;2.63;;
57615;SDS011;43816;52.054;-9.494;2023-02-01T00:31:50;4.07;;;2.72;;
57615;SDS011;43816;52.054;-9.494;2023-02-01T00:32:01;4.03;;;2.70;;
57615;SDS011;43816;52.054;-9.494;2023-02-01T00:32:11;3.97;;;2.60;;
57615;SDS011;43816;52.054;-9.494;2023-02-01T00:32:22;4.00;;;2.60;;
57615;SDS011;43816;52.054;-9.494;2023-02-01T00:32:32;4.60;;;2.65;;
57615;SDS011;43816;52.054;-9.494;2023-02-01T00:32:42;4.10;;;2.63;;
57615;SDS011;43816;52.054;-9.494;2023-02-01T00:32:53;4.13;;;2.60;;
57615;SDS011;43816;52.054;-9.494;2023-02-01T00:33:03;4.40;;;2.60;;
57615;SDS011;43816;52.054;-9.494;2023-02-01T00:33:13;5.00;;;2.60;;
57615;SDS011;43816;52.054;-9.494;2023-02-01T00:33:24;5.13;;;2.70;;
57615;SDS011;43816;52.054;-9.494;2023-02-01T00:33:34;4.75;;;2.80;;
57615;SDS011;43816;52.054;-9.494;2023-02-01T00:33:46;4.47;;;2.80;;
57615;SDS011;43816;52.054;-9.494;2023-02-01T00:33:58;4.00;;;2.60;;
57615;SDS011;43816;52.054;-9.494;2023-02-01T00:34:09;3.72;;;2.38;;
57615;SDS011;43816;52.054;-9.494;2023-02-01T00:34:22;4.10;;;2.30;;
57615;SDS011;43816;52.054;-9.494;2023-02-01T00:34:32;4.23;;;2.30;;
57615;SDS011;43816;52.054;-9.494;2023-02-01T00:34:42;4.23;;;2.50;;
57615;SDS011;43816;52.054;-9.494;2023-02-01T00:34:53;4.30;;;2.60;;
57615;SDS011;43816;52.054;-9.494;2023-02-01T00:35:03;4.00;;;2.60;;
57615;SDS011;43816;52.054;-9.494;2023-02-01T00:35:14;4.25;;;2.63;;
57615;SDS011;43816;52.054;-9.494;2023-02-01T00:35:24;3.90;;;2.60;;
57615;SDS011;43816;52.054;-9.494;2023-02-01T00:35:35;3.90;;;2.57;;
57615;SDS011;43816;52.054;-9.494;2023-02-01T00:35:45;3.70;;;2.45;;
57615;SDS011;43816;52.054;-9.494;2023-02-01T00:35:58;3.70;;;2.43;;
57615;SDS011;43816;52.054;-9.494;2023-02-01T00:36:09;3.90;;;2.50;;
57615;SDS011;43816;52.054;-9.494;2023-02-01T00:36:20;3.57;;;2.43;;
57615;SDS011;43816;52.054;-9.494;2023-02-01T00:36:30;3.80;;;2.33;;
57615;SDS011;43816;52.054;-9.494;2023-02-01T00:36:41;4.17;;;2.33;;
57615;SDS011;43816;52.054;-9.494;2023-02-01T00:36:53;3.70;;;2.25;;
57615;SDS011;43816;52.054;-9.494;2023-02-01T00:37:03;3.00;;;2.10;;
57615;SDS011;43816;52.054;-9.494;2023-02-01T00:37:13;3.10;;;2.10;;
57615;SDS011;43816;52.054;-9.494;2023-02-01T00:37:23;3.67;;;2.20;;
57615;SDS011;43816;52.054;-9.494;2023-02-01T00:37:34;4.53;;;2.60;;
57615;SDS011;43816;52.054;-9.494;2023-02-01T00:37:44;4.82;;;2.85;;
57615;SDS011;43816;52.054;-9.494;2023-02-01T00:37:54;4.80;;;2.90;;
57615;SDS011;43816;52.054;-9.494;2023-02-01T00:38:04;3.87;;;2.50;;
57615;SDS011;43816;52.054;-9.494;2023-02-01T00:38:15;3.40;;;2.40;;
57615;SDS011;43816;52.054;-9.494;2023-02-01T00:38:25;3.45;;;2.40;;
57615;SDS011;43816;52.054;-9.494;2023-02-01T00:38:37;3.92;;;2.55;;
57615;SDS011;43816;52.054;-9.494;2023-02-01T00:38:48;4.00;;;2.58;;
57615;SDS011;43816;52.054;-9.494;2023-02-01T00:38:58;3.97;;;2.63;;
57615;SDS011;43816;52.054;-9.494;2023-02-01T00:39:09;3.65;;;2.60;;
57615;SDS011;43816;52.054;-9.494;2023-02-01T00:39:20;3.43;;;2.60;;
57615;SDS011;43816;52.054;-9.494;2023-02-01T00:39:30;3.75;;;2.60;;
57615;SDS011;43816;52.054;-9.494;2023-02-01T00:39:40;3.87;;;2.60;;
57615;SDS011;43816;52.054;-9.494;2023-02-01T00:39:50;3.83;;;2.53;;
57615;SDS011;43816;52.054;-9.494;2023-02-01T00:40:01;3.47;;;2.50;;
57615;SDS011;43816;52.054;-9.494;2023-02-01T00:40:11;3.70;;;2.50;;
57615;SDS011;43816;52.054;-9.494;2023-02-01T00:40:22;3.67;;;2.47;;
57615;SDS011;43816;52.054;-9.494;2023-02-01T00:40:32;4.43;;;2.40;;
57615;SDS011;43816;52.054;-9.494;2023-02-01T00:40:42;4.27;;;2.50;;
57615;SDS011;43816;52.054;-9.494;2023-02-01T00:40:52;4.43;;;2.58;;
57615;SDS011;43816;52.054;-9.494;2023-02-01T00:41:24;3.90;;;2.63;;
57615;SDS011;43816;52.054;-9.494;2023-02-01T00:41:34;3.75;;;2.47;;
57615;SDS011;43816;52.054;-9.494;2023-02-01T00:41:45;3.57;;;2.47;;
57615;SDS011;43816;52.054;-9.494;2023-02-01T00:41:55;3.33;;;2.57;;
57615;SDS011;43816;52.054;-9.494;2023-02-01T00:42:05;4.10;;;2.70;;
57615;SDS011;43816;52.054;-9.494;2023-02-01T00:42:16;4.10;;;2.70;;
57615;SDS011;43816;52.054;-9.494;2023-02-01T00:42:26;4.50;;;2.53;;
57615;SDS011;43816;52.054;-9.494;2023-02-01T00:42:36;3.92;;;2.47;;
57615;SDS011;43816;52.054;-9.494;2023-02-01T00:42:46;3.57;;;2.30;;
57615;SDS011;43816;52.054;-9.494;2023-02-01T00:42:57;2.97;;;2.20;;
57615;SDS011;43816;52.054;-9.494;2023-02-01T00:43:07;3.50;;;2.40;;
57615;SDS011;43816;52.054;-9.494;2023-02-01T00:43:17;3.97;;;2.47;;
57615;SDS011;43816;52.054;-9.494;2023-02-01T00:43:28;4.50;;;2.70;;
57615;SDS011;43816;52.054;-9.494;2023-02-01T00:43:38;4.50;;;2.70;;
57615;SDS011;43816;52.054;-9.494;2023-02-01T00:43:49;4.47;;;2.80;;
57615;SDS011;43816;52.054;-9.494;2023-02-01T00:44:00;3.45;;;2.42;;
57615;SDS011;43816;52.054;-9.494;2023-02-01T00:44:11;3.60;;;2.40;;
57615;SDS011;43816;52.054;-9.494;2023-02-01T00:44:21;4.10;;;2.50;;
57615;SDS011;43816;52.054;-9.494;2023-02-01T00:44:32;3.97;;;2.42;;
57615;SDS011;43816;52.054;-9.494;2023-02-01T00:44:42;3.63;;;2.50;;
57615;SDS011;43816;52.054;-9.494;2023-02-01T00:44:52;2.80;;;2.33;;
57615;SDS011;43816;52.054;-9.494;2023-02-01T00:45:03;3.73;;;2.53;;
57615;SDS011;43816;52.054;-9.494;2023-02-01T00:45:13;3.60;;;2.37;;
57615;SDS011;43816;52.054;-9.494;2023-02-01T00:45:24;4.35;;;2.40;;
57615;SDS011;43816;52.054;-9.494;2023-02-01T00:45:34;3.77;;;2.30;;
57615;SDS011;43816;52.054;-9.494;2023-02-01T00:45:45;4.13;;;2.45;;
57615;SDS011;43816;52.054;-9.494;2023-02-01T00:45:56;3.38;;;2.38;;
57615;SDS011;43816;52.054;-9.494;2023-02-01T00:46:07;3.33;;;2.40;;
57615;SDS011;43816;52.054;-9.494;2023-02-01T00:46:18;3.17;;;2.33;;
57615;SDS011;43816;52.054;-9.494;2023-02-01T00:46:29;3.83;;;2.40;;
57615;SDS011;43816;52.054;-9.494;2023-02-01T00:46:39;3.75;;;2.40;;
57615;SDS011;43816;52.054;-9.494;2023-02-01T00:46:50;3.27;;;2.40;;
57615;SDS011;43816;52.054;-9.494;2023-02-01T00:47:00;3.10;;;2.43;;
57615;SDS011;43816;52.054;-9.494;2023-02-01T00:47:10;3.65;;;2.60;;
57615;SDS011;43816;52.054;-9.494;2023-02-01T00:47:21;3.37;;;2.43;;
57615;SDS011;43816;52.054;-9.494;2023-02-01T00:47:31;3.40;;;2.33;;
57615;SDS011;43816;52.054;-9.494;2023-02-01T00:47:41;3.15;;;2.20;;
57615;SDS011;43816;52.054;-9.494;2023-02-01T00:47:51;3.70;;;2.40;;
57615;SDS011;43816;52.054;-9.494;2023-02-01T00:48:02;3.63;;;2.40;;
57615;SDS011;43816;52.054;-9.494;2023-02-01T00:48:12;3.90;;;2.50;;
57615;SDS011;43816;52.054;-9.494;2023-02-01T00:48:22;3.70;;;2.47;;
57615;SDS011;43816;52.054;-9.494;2023-02-01T00:48:33;3.60;;;2.47;;
57615;SDS011;43816;52.054;-9.494;2023-02-01T00:48:43;3.05;;;2.30;;
57615;SDS011;43816;52.054;-9.494;2023-02-01T00:48:54;2.83;;;2.17;;
57615;SDS011;43816;52.054;-9.494;2023-02-01T00:49:05;2.63;;;2.20;;
57615;SDS011;43816;52.054;-9.494;2023-02-01T00:49:15;2.57;;;2.30;;
57615;SDS011;43816;52.054;-9.494;2023-02-01T00:49:26;2.83;;;2.27;;
57615;SDS011;43816;52.054;-9.494;2023-02-01T00:49:36;3.30;;;2.25;;
57615;SDS011;43816;52.054;-9.494;2023-02-01T00:49:47;3.83;;;2.30;;
57615;SDS011;43816;52.054;-9.494;2023-02-01T00:49:57;3.63;;;2.30;;
57615;SDS011;43816;52.054;-9.494;2023-02-01T00:50:07;3.20;;;2.33;;
57615;SDS011;43816;52.054;-9.494;2023-02-01T00:50:18;3.30;;;2.33;;
57615;SDS011;43816;52.054;-9.494;2023-02-01T00:50:28;3.50;;;2.50;;
57615;SDS011;43816;52.054;-9.494;2023-02-01T00:50:42;3.38;;;2.35;;
57615;SDS011;43816;52.054;-9.494;2023-02-01T00:50:52;3.80;;;2.40;;
57615;SDS011;43816;52.054;-9.494;2023-02-01T00:51:04;4.07;;;2.50;;
57615;SDS011;43816;52.054;-9.494;2023-02-01T00:51:23;3.80;;;2.50;;
57615;SDS011;43816;52.054;-9.494;2023-02-01T00:51:35;3.13;;;2.20;;
57615;SDS011;43816;52.054;-9.494;2023-02-01T00:51:45;3.10;;;2.20;;
57615;SDS011;43816;52.054;-9.494;2023-02-01T00:51:55;3.50;;;2.40;;
57615;SDS011;43816;52.054;-9.494;2023-02-01T00:52:06;3.90;;;2.60;;
57615;SDS011;43816;52.054;-9.494;2023-02-01T00:52:16;3.83;;;2.53;;
57615;SDS011;43816;52.054;-9.494;2023-02-01T00:52:26;3.50;;;2.37;;
57615;SDS011;43816;52.054;-9.494;2023-02-01T00:52:36;3.10;;;2.22;;
57615;SDS011;43816;52.054;-9.494;2023-02-01T00:52:47;3.70;;;2.37;;
57615;SDS011;43816;52.054;-9.494;2023-02-01T00:52:57;4.00;;;2.67;;
57615;SDS011;43816;52.054;-9.494;2023-02-01T00:53:08;3.90;;;2.60;;
57615;SDS011;43816;52.054;-9.494;2023-02-01T00:53:19;3.72;;;2.42;;
57615;SDS011;43816;52.054;-9.494;2023-02-01T00:53:29;3.72;;;2.40;;
57615;SDS011;43816;52.054;-9.494;2023-02-01T00:53:40;3.47;;;2.40;;
57615;SDS011;43816;52.054;-9.494;2023-02-01T00:53:50;3.20;;;2.35;;
57615;SDS011;43816;52.054;-9.494;2023-02-01T00:54:00;3.93;;;2.43;;
57615;SDS011;43816;52.054;-9.494;2023-02-01T00:54:11;4.33;;;2.43;;
57615;SDS011;43816;52.054;-9.494;2023-02-01T00:54:21;4.55;;;2.45;;
57615;SDS011;43816;52.054;-9.494;2023-02-01T00:54:32;3.77;;;2.40;;
57615;SDS011;43816;52.054;-9.494;2023-02-01T00:54:42;3.53;;;2.50;;
57615;SDS011;43816;52.054;-9.494;2023-02-01T00:54:53;3.53;;;2.63;;
57615;SDS011;43816;52.054;-9.494;2023-02-01T00:55:03;3.70;;;2.50;;
57615;SDS011;43816;52.054;-9.494;2023-02-01T00:55:14;3.80;;;2.40;;
57615;SDS011;43816;52.054;-9.494;2023-02-01T00:55:24;3.90;;;2.30;;
57615;SDS011;43816;52.054;-9.494;2023-02-01T00:55:34;3.83;;;2.43;;
57615;SDS011;43816;52.054;-9.494;2023-02-01T00:55:48;3.83;;;2.35;;
57615;SDS011;43816;52.054;-9.494;2023-02-01T00:55:59;3.78;;;2.28;;
57615;SDS011;43816;52.054;-9.494;2023-02-01T00:56:09;3.85;;;2.20;;
57615;SDS011;43816;52.054;-9.494;2023-02-01T00:56:20;4.40;;;2.40;;
57615;SDS011;43816;52.054;-9.494;2023-02-01T00:56:30;4.07;;;2.27;;
57615;SDS011;43816;52.054;-9.494;2023-02-01T00:56:41;3.73;;;2.30;;
57615;SDS011;43816;52.054;-9.494;2023-02-01T00:56:51;4.27;;;2.43;;
57615;SDS011;43816;52.054;-9.494;2023-02-01T00:57:01;4.50;;;2.47;;
57615;SDS011;43816;52.054;-9.494;2023-02-01T00:57:11;4.65;;;2.40;;
57615;SDS011;43816;52.054;-9.494;2023-02-01T00:57:22;4.27;;;2.40;;
57615;SDS011;43816;52.054;-9.494;2023-02-01T00:57:32;4.00;;;2.33;;
57615;SDS011;43816;52.054;-9.494;2023-02-01T00:57:42;3.88;;;2.28;;
57615;SDS011;43816;52.054;-9.494;2023-02-01T00:57:53;3.47;;;2.10;;
57615;SDS011;43816;52.054;-9.494;2023-02-01T00:58:03;3.47;;;2.10;;
57615;SDS011;43816;52.054;-9.494;2023-02-01T00:58:14;3.58;;;2.20;;
57615;SDS011;43816;52.054;-9.494;2023-02-01T00:58:24;3.80;;;2.30;;
57615;SDS011;43816;52.054;-9.494;2023-02-01T00:58:35;3.50;;;2.30;;
57615;SDS011;43816;52.054;-9.494;2023-02-01T00:58:46;3.63;;;2.30;;
57615;SDS011;43816;52.054;-9.494;2023-02-01T00:58:56;3.45;;;2.40;;
57615;SDS011;43816;52.054;-9.494;2023-02-01T00:59:07;3.97;;;2.40;;
57615;SDS011;43816;52.054;-9.494;2023-02-01T00:59:20;3.58;;;2.28;;
57615;SDS011;43816;52.054;-9.494;2023-02-01T00:59:30;4.03;;;2.33;;
57615;SDS011;43816;52.054;-9.494;2023-02-01T00:59:41;3.83;;;2.40;;
57615;SDS011;43816;52.054;-9.494;2023-02-01T00:59:51;4.00;;;2.40;;
57615;SDS011;43816;52.054;-9.494;2023-02-01T01:00:02;3.43;;;2.30;;
57615;SDS011;43816;52.054;-9.494;2023-02-01T01:00:12;3.67;;;2.35;;
57615;SDS011;43816;52.054;-9.494;2023-02-01T01:00:23;4.00;;;2.53;;
57615;SDS011;43816;52.054;-9.494;2023-02-01T01:00:33;4.03;;;2.43;;
57615;SDS011;43816;52.054;-9.494;2023-02-01T01:00:44;3.42;;;2.38;;
57615;SDS011;43816;52.054;-9.494;2023-02-01T01:01:01;3.37;;;2.27;;
57615;SDS011;43816;52.054;-9.494;2023-02-01T01:01:21;3.72;;;2.40;;
57615;SDS011;43816;52.054;-9.494;2023-02-01T01:01:33;3.78;;;2.40;;
57615;SDS011;43816;52.054;-9.494;2023-02-01T01:01:43;3.93;;;2.40;;
57615;SDS011;43816;52.054;-9.494;2023-02-01T01:01:53;3.80;;;2.33;;
57615;SDS011;43816;52.054;-9.494;2023-02-01T01:02:04;4.03;;;2.33;;
57615;SDS011;43816;52.054;-9.494;2023-02-01T01:02:14;3.83;;;2.40;;
57615;SDS011;43816;52.054;-9.494;2023-02-01T01:02:25;3.87;;;2.50;;
57615;SDS011;43816;52.054;-9.494;2023-02-01T01:02:36;3.55;;;2.33;;
57615;SDS011;43816;52.054;-9.494;2023-02-01T01:02:46;3.33;;;2.10;;
57615;SDS011;43816;52.054;-9.494;2023-02-01T01:02:57;3.60;;;2.10;;
57615;SDS011;43816;52.054;-9.494;2023-02-01T01:03:07;4.07;;;2.20;;
57615;SDS011;43816;52.054;-9.494;2023-02-01T01:03:17;3.87;;;2.10;;
57615;SDS011;43816;52.054;-9.494;2023-02-01T01:03:27;3.60;;;2.22;;
57615;SDS011;43816;52.054;-9.494;2023-02-01T01:03:42;3.23;;;2.17;;
57615;SDS011;43816;52.054;-9.494;2023-02-01T01:03:55;3.00;;;2.17;;
57615;SDS011;43816;52.054;-9.494;2023-02-01T01:04:07;3.60;;;2.35;;
57615;SDS011;43816;52.054;-9.494;2023-02-01T01:04:17;3.78;;;2.35;;
57615;SDS011;43816;52.054;-9.494;2023-02-01T01:04:27;4.53;;;2.47;;
57615;SDS011;43816;52.054;-9.494;2023-02-01T01:04:38;4.00;;;2.30;;
57615;SDS011;43816;52.054;-9.494;2023-02-01T01:04:48;4.35;;;2.40;;